• Join FlightAware (Why Join?)
  • Login
  • US Flag 
04:17PM EDT


 

Airport Tracker/Info


-or-


 

Live Flight TrackerFlight Track Log ✈ N678MB ✈ 04-Aug-2013 ✈ KOXB - KGAI

Flight Track Log - Related Links

Times and Time Zones

All times are in EDT time to prevent confusion due to time zone crossing. See the N678MB flight status page for this flight to view local times or setup timezone preferences in your user account.

Time Position Orientation Groundspeed Altitude Reporting Facility
EDT Latitude Longitude Course Direction KTS MPH feet Rate Location/Type
07:56PM 38.4464 -75.6500 312° West 268 308 5,900  Level Washington Center
07:57PM 38.4900 -75.7111 312° West 255 293 5,900  Level Washington Center
07:58PM 38.5400 -75.7747 315° West 244 281 5,900  Level Washington Center
07:59PM 38.5836 -75.8386 311° West 244 281 5,900  Level Washington Center
08:00PM 38.6294 -75.9025 313° West 238 274 5,900  Level Washington Center
08:01PM 38.3559 -75.5319 312° West  Level FlightAware Approximate
08:01PM 38.6772 -75.9639 315° West 238 274 5,900  Level Washington Center
08:02PM 38.3936 -75.5851 312° West  Level FlightAware Approximate
08:02PM 38.7250 -76.0333 311° West 243 280 5,900  Level Washington Center
08:03PM 38.7706 -76.0950 313° West 238 274 5,900  Level Washington Center
08:04PM 38.8139 -76.1592 311° West 243 280 5,900  Level Washington Center
08:05PM 38.8553 -76.2233 310° West 243 280 5,900  Level Washington Center
08:06PM 38.9031 -76.2878 314° West 248 285 5,900  Level Washington Center
08:07PM 38.9506 -76.3578 311° West 248 285 5,900  Level Washington Center
08:08PM 38.9981 -76.4250 312° West 253 291 5,900  Level Washington Center
08:10PM 39.0667 -76.5333 309° West 264 304 6,000 60 Climbing Potomac TRACON
08:11PM 39.0833 -76.6333 282° West 263 303 6,100  Climbing Potomac TRACON
08:12PM 39.0833 -76.7167 270° West 265 305 6,100 -180 Level Potomac TRACON
08:13PM 39.1000 -76.8000 284° West 263 303 5,800 -960 Descending Potomac TRACON
08:14PM 39.1167 -76.8833 284° West 229 264 4,200 -1,560 Descending Potomac TRACON
08:15PM 39.1333 -76.9667 284° West 217 250 2,700 -1,080 Descending Potomac TRACON
08:16PM 39.1500 -77.0333 288° West 174 200 2,100 -480 Descending Potomac TRACON
08:17PM 39.1500 -77.0833 270° West 138 159 1,800 -420 Descending Potomac TRACON
08:18PM 39.1333 -77.1167 237° Southwest 110 127 1,400 -420 Descending Potomac TRACON
08:19PM 39.1500 -77.1500 303° West 102 117 1,000 -420 Descending Potomac TRACON
08:21PM 39.1667 -77.1500 270° West  Level FlightAware Approximate
08:28PM 39.1683 -77.1660 270° West  Level Estimated
08:29PM 39.1683 -77.1660 270° West  Level Estimated
08:30PM 39.1683 -77.1660 270° West  Level Estimated
08:31PM 39.1683 -77.1660 270° West  Level Estimated